Time;durP1;ratioP1;P1;durP2;ratioP2;P2;SDS_P1;SDS_P2;PMS_P1;PMS_P2;Temp;Humidity;BMP_temperature;BMP_pressure;BME280_temperature;BME280_humidity;BME280_pressure;Samples;Min_cycle;Max_cycle;Signal;HPM_P1;HPM_P2
2024/01/15 00:02:09;;;;;;;43.25;17.27;;;-1.20;99.90;;;;;;5012971;28;20417;-53
2024/01/15 00:04:38;;;;;;;35.22;16.33;;;-1.20;99.90;;;;;;5012731;28;20026;-54
2024/01/15 00:07:05;;;;;;;40.88;15.98;;;-1.20;99.90;;;;;;5011339;28;20077;-48
2024/01/15 00:09:30;;;;;;;33.90;15.27;;;-1.20;99.90;;;;;;5011216;28;20136;-48
2024/01/15 00:11:56;;;;;;;38.63;16.77;;;-1.20;99.90;;;;;;5012270;28;20192;-52
2024/01/15 00:14:22;;;;;;;36.90;16.67;;;-1.30;99.90;;;;;;5012148;28;20400;-53
2024/01/15 00:16:50;;;;;;;37.60;15.30;;;-1.20;99.90;;;;;;5012572;28;20606;-50
2024/01/15 00:19:16;;;;;;;34.83;15.38;;;-1.20;99.90;;;;;;5012338;28;20037;-53
2024/01/15 00:21:42;;;;;;;34.65;16.02;;;-1.10;99.90;;;;;;5012248;28;20038;-52
2024/01/15 00:24:07;;;;;;;47.22;18.50;;;-1.10;99.90;;;;;;5012093;28;20021;-51
2024/01/15 00:26:33;;;;;;;40.85;17.08;;;-1.20;99.90;;;;;;5011968;28;20395;-50
2024/01/15 00:28:58;;;;;;;34.83;14.65;;;-1.30;99.90;;;;;;5012015;28;20030;-52
2024/01/15 00:31:24;;;;;;;36.72;16.40;;;-1.20;99.90;;;;;;5011082;28;20371;-47
2024/01/15 00:33:49;;;;;;;41.47;16.80;;;-1.20;99.90;;;;;;5011990;28;20037;-53
2024/01/15 00:36:16;;;;;;;50.83;20.10;;;-1.20;99.90;;;;;;5011831;28;20022;-50
2024/01/15 00:38:42;;;;;;;40.83;19.08;;;-1.20;99.90;;;;;;5010639;28;20034;-51
2024/01/15 00:41:07;;;;;;;43.58;18.90;;;-1.20;99.90;;;;;;5011717;28;20029;-49
2024/01/15 00:43:33;;;;;;;47.42;17.25;;;-1.20;99.90;;;;;;5011916;28;20060;-56
2024/01/15 00:46:02;;;;;;;45.33;17.95;;;-1.20;99.90;;;;;;5010374;28;20034;-50
2024/01/15 00:48:28;;;;;;;56.22;18.15;;;-1.20;99.90;;;;;;5011868;28;20030;-51
2024/01/15 00:50:54;;;;;;;45.42;18.67;;;-1.20;99.90;;;;;;5011835;28;20044;-53
2024/01/15 00:53:21;;;;;;;36.42;16.77;;;-1.20;99.90;;;;;;5011656;28;20022;-52
2024/01/15 00:55:47;;;;;;;42.83;17.15;;;-1.20;99.90;;;;;;5011659;28;20084;-50
2024/01/15 00:58:13;;;;;;;37.33;17.05;;;-1.20;99.90;;;;;;5011889;28;20022;-49
2024/01/15 01:00:38;;;;;;;41.05;18.45;;;-1.20;99.90;;;;;;5011671;28;20113;-50
2024/01/15 01:03:04;;;;;;;43.75;17.77;;;-1.20;99.90;;;;;;5011543;28;20030;-51
2024/01/15 01:05:29;;;;;;;45.45;18.27;;;-1.20;99.90;;;;;;5011519;28;20026;-54
2024/01/15 01:07:55;;;;;;;45.63;17.75;;;-1.10;99.90;;;;;;5010363;28;20026;-50
2024/01/15 01:10:20;;;;;;;39.50;17.42;;;-1.10;99.90;;;;;;5011808;28;20022;-51
2024/01/15 01:12:46;;;;;;;48.92;18.45;;;-1.10;99.90;;;;;;5011634;28;20018;-53
2024/01/15 01:15:11;;;;;;;46.00;19.58;;;-1.10;99.90;;;;;;5010043;28;20018;-51
2024/01/15 01:17:37;;;;;;;52.90;17.33;;;-1.10;99.90;;;;;;5011646;28;20022;-51
2024/01/15 01:20:04;;;;;;;37.90;16.60;;;-1.10;99.90;;;;;;5011685;28;20026;-52
2024/01/15 01:22:30;;;;;;;45.90;17.83;;;-1.10;99.90;;;;;;5011214;28;20022;-53
2024/01/15 01:24:55;;;;;;;43.15;18.25;;;-1.20;99.90;;;;;;5011409;28;20037;-50
2024/01/15 01:27:21;;;;;;;44.35;17.98;;;-1.10;99.90;;;;;;5011357;28;20393;-49
2024/01/15 01:29:47;;;;;;;38.88;17.00;;;-1.10;99.90;;;;;;5009997;28;20030;-54
2024/01/15 01:32:12;;;;;;;46.80;17.67;;;-1.00;99.90;;;;;;5010157;28;20029;-49
2024/01/15 01:34:44;;;;;;;47.10;18.13;;;-1.00;99.90;;;;;;5009870;28;20022;-48
2024/01/15 01:37:13;;;;;;;34.35;17.55;;;-1.00;99.90;;;;;;5011342;28;20022;-54
2024/01/15 01:39:40;;;;;;;39.13;16.08;;;-0.90;99.90;;;;;;5011500;28;20418;-52
2024/01/15 01:42:06;;;;;;;42.95;17.77;;;-0.90;99.90;;;;;;5011997;28;20034;-51
2024/01/15 01:44:32;;;;;;;39.92;16.20;;;-0.90;99.90;;;;;;5013477;28;20025;-52
2024/01/15 01:46:59;;;;;;;31.92;14.85;;;-0.90;99.90;;;;;;5013751;28;20041;-52
2024/01/15 01:49:26;;;;;;;39.22;16.05;;;-0.90;99.90;;;;;;5013621;28;20026;-50
2024/01/15 01:51:52;;;;;;;41.08;17.38;;;-0.90;99.90;;;;;;5014885;28;20018;-57
2024/01/15 01:54:18;;;;;;;54.47;23.65;;;-0.90;99.90;;;;;;5014622;28;20109;-49
2024/01/15 01:56:45;;;;;;;37.72;15.35;;;-0.90;99.90;;;;;;5015021;28;20049;-49
2024/01/15 01:59:11;;;;;;;43.17;15.43;;;-0.80;99.90;;;;;;5013629;28;20405;-51
2024/01/15 02:01:37;;;;;;;34.92;17.13;;;-0.80;99.90;;;;;;5014638;28;20092;-51
2024/01/15 02:04:03;;;;;;;31.02;14.20;;;-0.80;99.90;;;;;;5014759;28;20030;-48
2024/01/15 02:06:29;;;;;;;41.92;16.10;;;-0.80;99.90;;;;;;5014995;28;20400;-52
2024/01/15 02:08:55;;;;;;;43.35;16.83;;;-0.90;99.90;;;;;;5014664;28;20037;-52
2024/01/15 02:11:21;;;;;;;38.08;14.77;;;-0.80;99.90;;;;;;5013216;28;20117;-51
2024/01/15 02:13:47;;;;;;;35.85;15.68;;;-0.70;99.90;;;;;;5014403;28;20045;-51
2024/01/15 02:16:12;;;;;;;43.75;15.07;;;-0.80;99.90;;;;;;5014281;28;20022;-50
2024/01/15 02:18:42;;;;;;;44.83;17.27;;;-0.70;99.90;;;;;;5013210;28;20026;-48
2024/01/15 02:21:08;;;;;;;38.53;15.48;;;-0.70;99.90;;;;;;5013010;28;20477;-52
2024/01/15 02:23:34;;;;;;;41.88;18.73;;;-0.80;99.90;;;;;;5014275;28;20026;-51
2024/01/15 02:25:59;;;;;;;46.95;18.02;;;-0.90;99.90;;;;;;5014167;28;20041;-51
2024/01/15 02:28:25;;;;;;;44.33;18.88;;;-0.90;99.90;;;;;;5014150;28;20124;-54
2024/01/15 02:30:50;;;;;;;44.63;16.85;;;-0.90;99.90;;;;;;5014250;28;20493;-50
2024/01/15 02:33:16;;;;;;;41.22;17.38;;;-1.00;99.90;;;;;;5014555;28;20029;-48
2024/01/15 02:35:41;;;;;;;36.83;15.05;;;-0.90;99.90;;;;;;5012632;28;20462;-50
2024/01/15 02:38:07;;;;;;;45.65;19.17;;;-0.80;99.90;;;;;;5012732;28;20026;-54
2024/01/15 02:40:34;;;;;;;38.95;16.42;;;-0.80;99.90;;;;;;5013987;28;20030;-54
2024/01/15 02:42:59;;;;;;;41.90;17.05;;;-0.90;99.90;;;;;;5013737;28;20045;-52
2024/01/15 02:45:25;;;;;;;45.17;19.27;;;-0.90;99.90;;;;;;5013752;28;20037;-52
2024/01/15 02:47:50;;;;;;;41.15;18.00;;;-0.90;99.90;;;;;;5013814;28;20025;-51
2024/01/15 02:50:16;;;;;;;44.30;19.10;;;-0.90;99.90;;;;;;5013838;28;20132;-48
2024/01/15 02:52:42;;;;;;;48.13;17.95;;;-0.90;99.90;;;;;;5013706;28;20526;-54
2024/01/15 02:55:08;;;;;;;37.75;16.35;;;-0.90;99.90;;;;;;5012739;28;20022;-50
2024/01/15 02:57:34;;;;;;;38.97;15.63;;;-0.90;99.90;;;;;;5013657;28;20052;-53
2024/01/15 02:59:59;;;;;;;40.35;16.25;;;-0.90;99.90;;;;;;5013645;28;20026;-47
2024/01/15 03:02:25;;;;;;;43.35;16.83;;;-0.90;99.90;;;;;;5013392;28;20512;-52
2024/01/15 03:04:50;;;;;;;44.92;18.08;;;-0.80;99.90;;;;;;5013349;28;20363;-51
2024/01/15 03:07:16;;;;;;;48.38;16.92;;;-0.80;99.90;;;;;;5013562;28;20061;-48
2024/01/15 03:09:41;;;;;;;31.33;14.05;;;-0.80;99.90;;;;;;5013610;28;20113;-52
2024/01/15 03:12:07;;;;;;;38.13;14.82;;;-0.80;99.90;;;;;;5034802;22;20316;-44
2024/01/15 03:14:33;;;;;;;32.05;14.75;;;-0.60;99.90;;;;;;5012563;28;20520;-44
2024/01/15 03:16:58;;;;;;;35.28;14.30;;;-0.50;99.90;;;;;;5013437;28;20389;-47
2024/01/15 03:19:24;;;;;;;30.35;14.25;;;-0.50;99.90;;;;;;5013224;28;20022;-46
2024/01/15 03:21:49;;;;;;;27.80;12.05;;;-0.50;99.90;;;;;;4995461;28;20048;-43
2024/01/15 03:24:15;;;;;;;33.10;13.13;;;-0.40;99.90;;;;;;5012735;28;20402;-48
2024/01/15 03:26:40;;;;;;;42.08;15.30;;;-0.40;99.90;;;;;;5012890;28;20069;-41
2024/01/15 03:29:07;;;;;;;30.88;12.85;;;-0.40;99.90;;;;;;5013010;28;20123;-44
2024/01/15 03:31:32;;;;;;;31.50;13.60;;;-0.40;99.90;;;;;;5012808;28;20022;-44
2024/01/15 03:33:58;;;;;;;27.25;12.00;;;-0.30;99.90;;;;;;5013042;28;20026;-44
2024/01/15 03:36:23;;;;;;;37.40;14.45;;;-0.20;99.90;;;;;;4995066;28;20022;-44
2024/01/15 03:38:49;;;;;;;31.38;13.45;;;-0.20;99.90;;;;;;4995171;28;20026;-44
2024/01/15 03:41:14;;;;;;;30.23;12.43;;;-0.30;99.90;;;;;;5012680;28;20650;-43
2024/01/15 03:43:40;;;;;;;36.35;14.07;;;-0.30;99.90;;;;;;5012505;28;20034;-48
2024/01/15 03:46:06;;;;;;;32.90;14.15;;;-0.30;99.90;;;;;;5012685;28;20405;-48
2024/01/15 03:48:32;;;;;;;33.58;14.95;;;-0.40;99.90;;;;;;5012606;28;20076;-48
2024/01/15 03:50:57;;;;;;;38.38;13.45;;;-0.40;99.90;;;;;;5012664;28;20026;-47
2024/01/15 03:53:23;;;;;;;31.30;14.25;;;-0.30;99.90;;;;;;5012432;28;20037;-47
2024/01/15 03:55:49;;;;;;;33.00;14.05;;;-0.40;99.90;;;;;;5012430;28;20018;-49
2024/01/15 03:58:15;;;;;;;37.50;13.93;;;-0.40;99.90;;;;;;5012511;28;20026;-47
2024/01/15 04:00:42;;;;;;;33.42;12.85;;;-0.40;99.90;;;;;;5012373;28;20033;-46
2024/01/15 04:03:07;;;;;;;32.97;13.60;;;-0.40;99.90;;;;;;5012358;28;20041;-49
2024/01/15 04:05:33;;;;;;;37.08;17.60;;;-0.40;99.90;;;;;;5012155;28;20466;-45
2024/01/15 04:07:58;;;;;;;34.05;14.50;;;-0.40;99.90;;;;;;5012300;28;20037;-47
2024/01/15 04:10:24;;;;;;;36.97;13.85;;;-0.30;99.90;;;;;;5012163;28;20026;-47
2024/01/15 04:12:49;;;;;;;29.05;13.68;;;-0.40;99.90;;;;;;5012001;28;20038;-45
2024/01/15 04:15:15;;;;;;;33.58;15.32;;;-0.40;99.90;;;;;;5012229;28;20074;-49
2024/01/15 04:17:41;;;;;;;33.92;14.68;;;-0.50;99.90;;;;;;5012266;28;20030;-48
2024/01/15 04:20:07;;;;;;;35.17;15.75;;;-0.40;99.90;;;;;;5011979;28;20533;-48
2024/01/15 04:22:35;;;;;;;34.00;14.93;;;-0.40;99.90;;;;;;5011915;28;20056;-45
2024/01/15 04:25:01;;;;;;;33.30;14.32;;;-0.40;99.90;;;;;;5012037;28;20034;-46
2024/01/15 04:27:26;;;;;;;31.67;15.85;;;-0.30;99.90;;;;;;5012157;28;20440;-47
2024/01/15 04:29:52;;;;;;;32.80;15.32;;;-0.30;99.90;;;;;;5011947;28;20117;-42
2024/01/15 04:32:18;;;;;;;33.65;13.20;;;-0.20;99.90;;;;;;5011834;28;20552;-47
2024/01/15 04:34:44;;;;;;;28.25;13.70;;;-0.20;99.90;;;;;;5011803;28;20104;-47
2024/01/15 04:37:09;;;;;;;38.00;13.35;;;-0.20;99.90;;;;;;5011914;28;20065;-45
2024/01/15 04:39:35;;;;;;;38.20;15.23;;;-0.20;99.90;;;;;;5011879;28;20061;-45
2024/01/15 04:42:00;;;;;;;31.83;13.98;;;-0.20;99.90;;;;;;5011700;28;20034;-45
2024/01/15 04:44:26;;;;;;;37.40;14.40;;;-0.20;99.90;;;;;;4993877;28;20026;-47
2024/01/15 04:46:51;;;;;;;37.72;14.18;;;-0.20;99.90;;;;;;5011831;28;20041;-46
2024/01/15 04:49:17;;;;;;;34.58;14.15;;;-0.20;99.90;;;;;;5011723;28;20026;-48
2024/01/15 04:51:42;;;;;;;33.75;13.98;;;-0.10;99.90;;;;;;5011534;28;20036;-48
2024/01/15 04:54:08;;;;;;;27.38;13.30;;;-0.10;99.90;;;;;;5011665;28;20065;-45
2024/01/15 04:56:33;;;;;;;27.45;12.45;;;-0.10;99.90;;;;;;5011410;28;20068;-48
2024/01/15 04:58:59;;;;;;;37.25;14.77;;;0.00;99.90;;;;;;5011675;28;20397;-45
2024/01/15 05:01:24;;;;;;;34.05;14.13;;;0.00;99.90;;;;;;5011693;28;20034;-50
2024/01/15 05:03:50;;;;;;;30.98;12.90;;;0.00;99.90;;;;;;5011498;28;20041;-47
2024/01/15 05:06:15;;;;;;;27.90;12.88;;;0.10;99.90;;;;;;5011362;28;20053;-48
2024/01/15 05:08:41;;;;;;;31.23;13.80;;;0.20;99.90;;;;;;5011465;28;20030;-45
2024/01/15 05:11:06;;;;;;;36.08;14.95;;;0.20;99.90;;;;;;5011544;28;20412;-49
2024/01/15 05:13:32;;;;;;;27.33;13.38;;;0.20;99.90;;;;;;5011829;28;20029;-45
2024/01/15 05:15:57;;;;;;;32.70;12.85;;;0.20;99.90;;;;;;5011765;28;20029;-46
2024/01/15 05:18:23;;;;;;;28.10;13.80;;;0.20;99.90;;;;;;5014641;28;20033;-45
2024/01/15 05:20:49;;;;;;;35.20;14.07;;;0.10;99.90;;;;;;5015374;28;20058;-46
2024/01/15 05:23:14;;;;;;;26.33;11.95;;;0.20;99.90;;;;;;5015145;28;20056;-45
2024/01/15 05:25:40;;;;;;;28.30;13.82;;;0.20;99.90;;;;;;5015034;28;20382;-46
2024/01/15 05:28:06;;;;;;;26.98;13.55;;;0.20;99.90;;;;;;5015443;28;20185;-46
2024/01/15 05:30:31;;;;;;;29.60;13.18;;;0.20;99.90;;;;;;5015326;28;20457;-47
2024/01/15 05:32:57;;;;;;;31.23;14.25;;;0.30;99.90;;;;;;5015091;28;20021;-47
2024/01/15 05:35:23;;;;;;;27.27;12.95;;;0.30;99.90;;;;;;5015114;28;20112;-44
2024/01/15 05:37:48;;;;;;;33.10;13.50;;;0.30;99.90;;;;;;4997733;28;20509;-45
2024/01/15 05:40:14;;;;;;;33.75;14.50;;;0.30;99.90;;;;;;4997210;28;20033;-47
2024/01/15 05:42:41;;;;;;;31.25;13.98;;;0.30;99.90;;;;;;5014774;28;20049;-48
2024/01/15 05:45:07;;;;;;;26.92;12.30;;;0.30;99.90;;;;;;5015111;28;20025;-44
2024/01/15 05:47:33;;;;;;;30.08;12.55;;;0.30;99.90;;;;;;5015273;28;20546;-46
2024/01/15 05:49:58;;;;;;;36.20;15.13;;;0.20;99.90;;;;;;5014751;28;20153;-46
2024/01/15 05:52:24;;;;;;;32.65;14.50;;;0.20;99.90;;;;;;5014790;28;20096;-44
2024/01/15 05:54:50;;;;;;;32.33;15.32;;;0.20;99.90;;;;;;5014557;28;20029;-43
2024/01/15 05:57:16;;;;;;;36.55;13.55;;;0.10;99.90;;;;;;5014809;28;20026;-45
2024/01/15 05:59:43;;;;;;;41.10;14.63;;;0.10;99.90;;;;;;5014509;28;20054;-44
2024/01/15 06:02:08;;;;;;;35.08;15.10;;;0.10;99.90;;;;;;5014472;28;20593;-44
2024/01/15 06:04:33;;;;;;;35.88;14.20;;;0.10;99.90;;;;;;5014265;28;20108;-44
2024/01/15 06:06:59;;;;;;;26.08;12.15;;;0.10;99.90;;;;;;5014545;28;20042;-46
2024/01/15 06:09:24;;;;;;;28.52;13.57;;;0.10;99.90;;;;;;5014584;28;20030;-47
2024/01/15 06:11:50;;;;;;;32.38;12.98;;;0.00;99.90;;;;;;5014326;28;20026;-44
2024/01/15 06:14:16;;;;;;;26.75;13.02;;;-0.10;99.90;;;;;;5014398;28;20022;-42
2024/01/15 06:16:41;;;;;;;31.98;13.35;;;-0.10;99.90;;;;;;5014306;28;20105;-44
2024/01/15 06:19:07;;;;;;;26.30;12.60;;;0.00;99.90;;;;;;5014601;28;20559;-45
2024/01/15 06:21:32;;;;;;;29.15;11.88;;;0.00;99.90;;;;;;5014415;28;20053;-45
2024/01/15 06:23:57;;;;;;;28.65;12.95;;;0.00;99.90;;;;;;5014109;28;20021;-43
2024/01/15 06:26:23;;;;;;;28.27;13.43;;;0.10;99.90;;;;;;5014060;28;20064;-47
2024/01/15 06:28:49;;;;;;;29.65;13.35;;;0.10;99.90;;;;;;5012779;28;20382;-42
2024/01/15 06:31:14;;;;;;;23.75;12.38;;;0.20;99.90;;;;;;5014191;28;20030;-42
2024/01/15 06:33:40;;;;;;;27.90;12.75;;;0.10;99.90;;;;;;5013935;28;20025;-45
2024/01/15 06:36:06;;;;;;;24.33;10.43;;;0.20;99.90;;;;;;5013792;28;20109;-49
2024/01/15 06:38:31;;;;;;;30.25;14.32;;;0.10;99.90;;;;;;5013861;28;20129;-45
2024/01/15 06:40:57;;;;;;;27.80;13.65;;;0.20;99.90;;;;;;5013858;28;20493;-46
2024/01/15 06:43:22;;;;;;;26.35;12.55;;;0.10;99.90;;;;;;5013718;28;20100;-47
2024/01/15 06:45:48;;;;;;;27.65;12.55;;;0.20;99.90;;;;;;5013527;28;20072;-46
2024/01/15 06:48:16;;;;;;;32.13;13.98;;;0.20;99.90;;;;;;5013585;28;20109;-44
2024/01/15 06:50:44;;;;;;;29.30;13.05;;;0.20;99.90;;;;;;5013690;28;20018;-44
2024/01/15 06:53:10;;;;;;;29.17;13.45;;;0.30;99.90;;;;;;5013895;28;20316;-46
2024/01/15 06:55:36;;;;;;;28.63;14.02;;;0.20;99.90;;;;;;5013696;28;20075;-45
2024/01/15 06:58:02;;;;;;;31.10;13.77;;;0.30;99.90;;;;;;5013735;28;20030;-47
2024/01/15 07:00:28;;;;;;;28.95;14.18;;;0.20;99.90;;;;;;5013610;28;20087;-46
2024/01/15 07:02:54;;;;;;;29.38;13.45;;;0.40;99.90;;;;;;5013388;28;20026;-47
2024/01/15 07:05:20;;;;;;;32.25;13.93;;;0.30;99.90;;;;;;4996660;28;20034;-48
2024/01/15 07:07:47;;;;;;;25.05;12.90;;;0.40;99.90;;;;;;5015106;28;20061;-47
2024/01/15 07:10:13;;;;;;;27.88;12.52;;;0.50;99.90;;;;;;5015723;28;20451;-44
2024/01/15 07:12:38;;;;;;;30.00;13.02;;;0.50;99.90;;;;;;5013966;28;20519;-53
2024/01/15 07:15:06;;;;;;;29.70;13.57;;;0.50;99.90;;;;;;5013556;28;20072;-48
2024/01/15 07:17:32;;;;;;;27.20;13.27;;;0.50;99.90;;;;;;5014287;28;20022;-44
2024/01/15 07:19:57;;;;;;;28.42;12.55;;;0.60;99.90;;;;;;5014142;28;20112;-47
2024/01/15 07:22:23;;;;;;;27.55;13.35;;;0.50;99.90;;;;;;5013503;28;20030;-48
2024/01/15 07:24:48;;;;;;;31.30;14.23;;;0.50;99.90;;;;;;5013043;28;20660;-44
2024/01/15 07:27:14;;;;;;;31.58;14.20;;;0.50;99.90;;;;;;5012949;28;20050;-44
2024/01/15 07:29:39;;;;;;;30.30;14.15;;;0.60;99.90;;;;;;5013011;28;20040;-46
2024/01/15 07:32:07;;;;;;;32.70;13.95;;;0.50;99.90;;;;;;5013385;28;20048;-44
2024/01/15 07:34:33;;;;;;;28.48;14.65;;;0.50;99.90;;;;;;5012625;28;20017;-45
2024/01/15 07:36:58;;;;;;;30.38;13.55;;;0.50;99.90;;;;;;5012862;28;20073;-46
2024/01/15 07:39:25;;;;;;;28.92;13.85;;;0.40;99.90;;;;;;5012759;28;20073;-51
2024/01/15 07:41:51;;;;;;;29.83;13.90;;;0.40;99.90;;;;;;5012713;28;20022;-47
2024/01/15 07:44:16;;;;;;;30.10;13.70;;;0.40;99.90;;;;;;4995147;28;20081;-42
2024/01/15 07:46:46;;;;;;;29.23;13.20;;;0.40;99.90;;;;;;5012878;28;20025;-48
2024/01/15 07:49:12;;;;;;;31.80;13.93;;;0.40;99.90;;;;;;5012597;28;20033;-45
2024/01/15 07:51:37;;;;;;;26.77;13.90;;;0.50;99.90;;;;;;5012553;28;20018;-45
2024/01/15 07:54:03;;;;;;;33.75;14.48;;;0.60;99.90;;;;;;5012521;28;20033;-45
2024/01/15 07:56:28;;;;;;;27.77;13.05;;;0.70;99.90;;;;;;5012448;28;20022;-50
2024/01/15 07:58:54;;;;;;;28.27;12.77;;;0.70;99.90;;;;;;5012631;28;20152;-45
2024/01/15 08:01:20;;;;;;;30.00;14.40;;;0.80;99.90;;;;;;5012584;28;20025;-44
2024/01/15 08:03:45;;;;;;;25.52;13.32;;;0.80;99.90;;;;;;5012251;28;20037;-44
2024/01/15 08:06:11;;;;;;;25.88;13.25;;;0.70;99.90;;;;;;5012709;28;20036;-48
2024/01/15 08:08:37;;;;;;;28.27;12.63;;;0.80;99.90;;;;;;5013393;28;20032;-45
2024/01/15 08:11:03;;;;;;;27.58;12.35;;;0.80;99.90;;;;;;5014206;28;20037;-44
2024/01/15 08:13:28;;;;;;;26.17;13.65;;;0.80;99.90;;;;;;5012635;28;20034;-49
2024/01/15 08:15:54;;;;;;;24.70;13.32;;;0.90;99.90;;;;;;5011940;28;20620;-46
2024/01/15 08:18:21;;;;;;;23.80;11.80;;;1.00;99.90;;;;;;5012485;28;20026;-47
2024/01/15 08:20:47;;;;;;;28.42;12.40;;;1.10;99.90;;;;;;5012061;28;20106;-46
2024/01/15 08:23:12;;;;;;;30.73;13.82;;;1.10;99.90;;;;;;5012137;28;20116;-47
2024/01/15 08:25:38;;;;;;;26.75;11.35;;;1.10;99.90;;;;;;5012072;28;20494;-49
2024/01/15 08:28:03;;;;;;;24.33;11.63;;;1.10;99.90;;;;;;4994785;28;20030;-46
2024/01/15 08:30:29;;;;;;;28.83;12.18;;;1.10;99.90;;;;;;5011948;28;20102;-46
2024/01/15 08:32:55;;;;;;;23.83;11.70;;;1.10;99.90;;;;;;5011873;28;20478;-46
2024/01/15 08:35:24;;;;;;;20.15;10.57;;;1.10;99.90;;;;;;4994214;28;20022;-47
2024/01/15 08:37:50;;;;;;;23.98;11.57;;;1.10;99.90;;;;;;5011972;28;20076;-46
2024/01/15 08:40:16;;;;;;;24.08;11.70;;;1.10;99.90;;;;;;5012380;28;20022;-44
2024/01/15 08:42:42;;;;;;;24.77;11.32;;;1.10;99.90;;;;;;5011913;28;20403;-49
2024/01/15 08:45:08;;;;;;;24.88;11.75;;;1.20;99.90;;;;;;5011674;28;20022;-44
2024/01/15 08:47:34;;;;;;;23.40;11.25;;;1.20;99.90;;;;;;5011925;28;20026;-43
2024/01/15 08:49:59;;;;;;;24.50;11.50;;;1.20;99.90;;;;;;5011942;28;20378;-48
2024/01/15 08:52:25;;;;;;;20.63;10.68;;;1.10;99.90;;;;;;5010852;28;20032;-46
2024/01/15 08:54:51;;;;;;;21.10;11.45;;;1.20;99.90;;;;;;5012852;28;20037;-47
2024/01/15 08:57:16;;;;;;;23.45;11.20;;;1.20;99.90;;;;;;5012385;28;20501;-41
2024/01/15 08:59:42;;;;;;;22.52;10.68;;;1.30;99.90;;;;;;5011745;28;20088;-45
2024/01/15 09:02:07;;;;;;;22.50;11.32;;;1.30;99.90;;;;;;5012058;28;20077;-45
2024/01/15 09:04:33;;;;;;;20.52;10.93;;;1.30;99.90;;;;;;5011606;28;20390;-45
2024/01/15 09:06:59;;;;;;;18.20;9.80;;;1.40;99.90;;;;;;5011757;28;20114;-49
2024/01/15 09:09:25;;;;;;;22.23;11.35;;;1.40;99.90;;;;;;5011657;28;20378;-44
2024/01/15 09:11:51;;;;;;;21.65;10.68;;;1.40;99.90;;;;;;5011319;28;20036;-44
2024/01/15 09:14:17;;;;;;;24.10;11.57;;;1.50;99.90;;;;;;5011655;28;20030;-44
2024/01/15 09:16:42;;;;;;;26.23;12.23;;;1.50;99.90;;;;;;5011541;28;20033;-51
2024/01/15 09:19:08;;;;;;;23.10;10.88;;;1.60;99.90;;;;;;5011552;28;20121;-44
2024/01/15 09:21:33;;;;;;;26.13;10.85;;;1.80;99.90;;;;;;5011297;28;20026;-49
2024/01/15 09:23:59;;;;;;;22.60;11.80;;;1.90;99.90;;;;;;5011360;28;20150;-45
2024/01/15 09:26:24;;;;;;;18.55;10.38;;;1.90;99.90;;;;;;5011199;28;20120;-44
2024/01/15 09:28:50;;;;;;;22.30;11.15;;;2.00;99.90;;;;;;5011323;28;20160;-49
2024/01/15 09:31:17;;;;;;;21.70;11.77;;;2.00;99.90;;;;;;5011290;28;20033;-44
2024/01/15 09:33:44;;;;;;;22.52;12.02;;;2.10;99.90;;;;;;5011112;28;20393;-48
2024/01/15 09:36:09;;;;;;;25.17;11.20;;;2.10;99.90;;;;;;5011439;28;20509;-49
2024/01/15 09:38:35;;;;;;;22.67;11.57;;;2.10;99.90;;;;;;5011327;28;20088;-47
2024/01/15 09:41:00;;;;;;;19.13;10.98;;;2.20;99.90;;;;;;5011145;28;20026;-47
2024/01/15 09:43:26;;;;;;;21.80;11.18;;;2.10;99.90;;;;;;5011003;28;20077;-44
2024/01/15 09:45:53;;;;;;;20.15;11.63;;;2.00;99.90;;;;;;5011109;28;20114;-48
2024/01/15 09:48:18;;;;;;;17.90;10.70;;;2.00;99.90;;;;;;4993322;28;20072;-45
2024/01/15 09:50:44;;;;;;;23.73;12.18;;;1.90;99.90;;;;;;5011074;28;20026;-44
2024/01/15 09:53:10;;;;;;;26.70;12.68;;;1.80;99.90;;;;;;5010882;28;20076;-47
2024/01/15 09:55:39;;;;;;;18.50;10.63;;;1.80;99.90;;;;;;5011050;28;20358;-45
2024/01/15 09:58:05;;;;;;;24.27;11.57;;;1.70;99.90;;;;;;5010985;28;20081;-49
2024/01/15 10:00:32;;;;;;;27.77;11.85;;;1.70;99.90;;;;;;5010922;28;20501;-45
2024/01/15 10:03:00;;;;;;;19.77;11.23;;;1.80;99.90;;;;;;5011369;28;20026;-45
2024/01/15 10:05:26;;;;;;;23.08;11.38;;;1.80;99.90;;;;;;5014423;28;20014;-45
2024/01/15 10:07:54;;;;;;;20.10;10.93;;;1.70;99.90;;;;;;5014439;28;20022;-44
2024/01/15 10:10:21;;;;;;;24.63;11.05;;;1.80;99.90;;;;;;5014844;28;20493;-44
2024/01/15 10:12:47;;;;;;;19.80;10.50;;;1.80;99.90;;;;;;5013984;28;20381;-44
2024/01/15 10:15:13;;;;;;;24.60;11.15;;;1.90;99.90;;;;;;5014222;28;20037;-44
2024/01/15 10:17:39;;;;;;;20.17;11.25;;;1.90;99.90;;;;;;5014375;28;20022;-44
2024/01/15 10:20:09;;;;;;;18.92;11.45;;;1.90;99.90;;;;;;5014734;28;20509;-46
2024/01/15 10:22:37;;;;;;;20.83;11.82;;;1.90;99.90;;;;;;5014229;28;20127;-45
2024/01/15 10:25:04;;;;;;;19.92;11.23;;;1.80;99.90;;;;;;5014257;28;20021;-45
2024/01/15 10:27:30;;;;;;;19.85;10.93;;;1.80;99.90;;;;;;5014972;28;20415;-48
2024/01/15 10:30:00;;;;;;;26.45;12.73;;;1.70;99.90;;;;;;5014074;28;20026;-45
2024/01/15 10:32:26;;;;;;;20.85;10.82;;;1.80;99.90;;;;;;5013955;28;20022;-45
2024/01/15 10:34:52;;;;;;;18.50;10.45;;;1.80;99.90;;;;;;4996307;28;20505;-42
2024/01/15 10:37:19;;;;;;;17.05;10.73;;;1.80;99.90;;;;;;5013955;28;20374;-49
2024/01/15 10:39:46;;;;;;;23.65;11.85;;;1.70;99.90;;;;;;4996348;28;20126;-51
2024/01/15 10:42:12;;;;;;;18.55;10.18;;;1.70;99.90;;;;;;5013694;28;20041;-42
2024/01/15 10:44:37;;;;;;;18.73;10.48;;;1.70;99.90;;;;;;5028987;28;20025;-43
2024/01/15 10:47:04;;;;;;;19.23;10.80;;;1.70;99.90;;;;;;5033386;28;20026;-45
2024/01/15 10:49:30;;;;;;;46.75;22.77;;;1.60;99.90;;;;;;5033483;28;20041;-44
2024/01/15 10:51:56;;;;;;;30.15;16.85;;;1.60;99.90;;;;;;5033365;28;20559;-46
2024/01/15 10:54:23;;;;;;;20.50;11.70;;;1.60;99.90;;;;;;5033115;28;20048;-46
2024/01/15 10:56:51;;;;;;;19.80;10.63;;;1.60;99.90;;;;;;5034272;28;20112;-45
2024/01/15 10:59:18;;;;;;;23.10;10.88;;;1.60;99.90;;;;;;5033791;28;20109;-43
2024/01/15 11:01:44;;;;;;;21.25;10.40;;;1.70;99.90;;;;;;5032974;28;20030;-50
2024/01/15 11:04:09;;;;;;;18.58;10.40;;;1.70;99.90;;;;;;5033061;28;20033;-47
2024/01/15 11:06:45;;;;;;;19.88;11.23;;;1.70;99.90;;;;;;5031935;28;20021;-50
2024/01/15 11:09:12;;;;;;;21.02;10.30;;;1.70;99.90;;;;;;5013045;28;20168;-44
2024/01/15 11:11:43;;;;;;;20.30;10.95;;;1.70;99.90;;;;;;5012997;28;20022;-45
2024/01/15 11:14:09;;;;;;;16.40;8.82;;;1.80;99.90;;;;;;5012993;28;20425;-46
2024/01/15 11:17:01;;;;;;;17.60;9.90;;;1.70;99.90;;;;;;5012609;28;20026;-44
2024/01/15 11:19:41;;;;;;;15.00;9.10;;;1.80;99.90;;;;;;5012147;28;20036;-45
2024/01/15 11:22:33;;;;;;;17.77;9.30;;;1.90;99.90;;;;;;5011021;28;20026;-49
2024/01/15 11:25:13;;;;;;;14.60;9.35;;;2.10;99.90;;;;;;4994421;28;20117;-44
2024/01/15 11:27:52;;;;;;;15.57;9.00;;;2.20;99.90;;;;;;5013022;28;20030;-46
2024/01/15 11:30:22;;;;;;;17.08;9.52;;;2.20;99.90;;;;;;5011821;28;20099;-50
2024/01/15 11:32:48;;;;;;;14.70;8.68;;;2.20;99.90;;;;;;5013193;28;20026;-45
2024/01/15 11:35:14;;;;;;;20.77;9.32;;;2.20;99.90;;;;;;5012825;28;20523;-47
2024/01/15 11:37:55;;;;;;;15.93;9.70;;;2.10;99.90;;;;;;5013013;28;20225;-46
2024/01/15 11:40:34;;;;;;;17.42;9.27;;;2.10;99.90;;;;;;5012814;28;20509;-44
2024/01/15 11:42:59;;;;;;;17.65;9.63;;;2.10;99.90;;;;;;5012825;28;20517;-47
2024/01/15 11:45:26;;;;;;;16.80;9.75;;;2.10;99.90;;;;;;5012654;28;20026;-47
2024/01/15 11:47:52;;;;;;;15.82;8.75;;;2.20;99.90;;;;;;5012686;28;20513;-44
2024/01/15 11:50:18;;;;;;;12.82;8.02;;;2.20;99.90;;;;;;5012453;28;20101;-45
2024/01/15 11:52:51;;;;;;;16.13;8.90;;;2.30;99.90;;;;;;5012385;28;20041;-47
2024/01/15 11:55:22;;;;;;;17.20;9.55;;;2.30;99.90;;;;;;5012421;28;20117;-44
2024/01/15 11:57:54;;;;;;;16.02;8.93;;;2.30;99.90;;;;;;5012471;28;20489;-45
2024/01/15 12:00:20;;;;;;;16.88;9.10;;;2.40;99.90;;;;;;5012316;28;20068;-49
2024/01/15 12:02:47;;;;;;;16.92;9.43;;;2.40;99.90;;;;;;5012533;28;20504;-45
2024/01/15 12:05:15;;;;;;;16.65;9.25;;;2.30;99.90;;;;;;5012092;28;20037;-45
2024/01/15 12:07:42;;;;;;;15.20;9.00;;;2.30;99.90;;;;;;5012845;28;20101;-45
2024/01/15 12:10:11;;;;;;;15.45;9.55;;;2.30;99.90;;;;;;5013181;28;20186;-46
2024/01/15 12:13:00;;;;;;;13.07;8.23;;;2.30;99.90;;;;;;5012376;28;20573;-45
2024/01/15 12:15:28;;;;;;;13.82;9.05;;;2.30;99.90;;;;;;5013251;28;20026;-46
2024/01/15 12:18:02;;;;;;;15.25;9.57;;;2.40;99.90;;;;;;5012044;28;20073;-48
2024/01/15 12:20:28;;;;;;;14.85;8.82;;;2.40;99.90;;;;;;5012595;28;20022;-45
2024/01/15 12:22:57;;;;;;;14.80;8.73;;;2.40;99.90;;;;;;5012467;28;20026;-46
2024/01/15 12:25:24;;;;;;;17.25;9.95;;;2.40;99.90;;;;;;5012133;28;20505;-45
2024/01/15 12:27:51;;;;;;;14.73;8.63;;;2.40;99.90;;;;;;5012493;28;20152;-47
2024/01/15 12:30:16;;;;;;;14.82;9.18;;;2.40;99.90;;;;;;5011447;28;20026;-41